Main page
METAR-TAF:

METAR-TAF

Airports :

Auburn University Regional Airport

Auburn, Alabama, United States

latitude: 32-37N, longitude: 085-26W, elevation: 774 ft

Current weather observation

The report was made 54 minutes ago, at 09:56 UTC
Wind 5 mph from the South
Temperature 73°F
Humidity 100%
Pressure 30.10 in. Hg
Visibility: 10 miles
Overcast at a height of 200 ft

METAR: KAUO 200956Z AUTO 18004KT 10SM OVC002 23/23 A3010 RMK AO2 SLP179 T02330233

Time: 05:50 (10:50 UTC)


TAF: missing

Weather observations and forecasts of more than 4000 airports (METAR and TAF reports).

The available stations are represented by yellow and red dots on the map.

Hover mouse over dot to see the name of the station.

Then click to see weather observations and forecasts.

To change the map : click on the green buttons with a black cross to zoom in, on the green button with a dash to zoom out, or on the green arrows for adjacent maps.


METAR-TAF: